Time;durP1;ratioP1;P1;durP2;ratioP2;P2;SDS_P1;SDS_P2;PMS_P1;PMS_P2;Temp;Humidity;BMP_temperature;BMP_pressure;BME280_temperature;BME280_humidity;BME280_pressure;Samples;Min_cycle;Max_cycle;Signal;HPM_P1;HPM_P2
2023/08/14 00:01:32;;;;;;;1.77;0.40;;;18.40;99.90;;;;;;4204093;28;20261;-89
2023/08/14 00:03:32;;;;;;;0.75;0.60;;;18.30;99.90;;;;;;4187348;28;20172;-89
2023/08/14 00:05:33;;;;;;;0.30;0.20;;;18.20;99.90;;;;;;4185039;28;20180;-88
2023/08/14 00:07:34;;;;;;;2.58;0.80;;;18.10;99.90;;;;;;4184729;28;20648;-89
2023/08/14 00:09:35;;;;;;;0.52;0.32;;;18.00;99.90;;;;;;4184162;28;20207;-89
2023/08/14 00:11:35;;;;;;;2.70;1.42;;;18.00;99.90;;;;;;4184152;28;20201;-89
2023/08/14 00:13:53;;;;;;;0.40;0.25;;;18.10;99.90;;;;;;4201300;28;20179;-88
2023/08/14 00:15:54;;;;;;;0.60;0.25;;;18.20;99.90;;;;;;4183809;28;20194;-89
2023/08/14 00:17:55;;;;;;;0.75;0.30;;;18.20;99.90;;;;;;4183837;28;20186;-89
2023/08/14 00:19:55;;;;;;;1.77;0.30;;;18.20;99.90;;;;;;4184036;28;20191;-89
2023/08/14 00:21:56;;;;;;;0.22;0.20;;;18.30;99.90;;;;;;4200438;28;20181;-89
2023/08/14 00:23:58;;;;;;;0.50;0.40;;;18.20;99.90;;;;;;4200582;28;20173;-95
2023/08/14 00:25:59;;;;;;;0.35;0.22;;;18.10;99.90;;;;;;4183651;28;20267;-90
2023/08/14 00:27:59;;;;;;;0.40;0.30;;;18.00;99.90;;;;;;4183289;28;20179;-89
2023/08/14 00:30:01;;;;;;;2.28;0.60;;;17.90;99.90;;;;;;4183422;28;20199;-90
2023/08/14 00:32:02;;;;;;;0.40;0.30;;;17.70;99.90;;;;;;4183601;28;20320;-89
2023/08/14 00:34:03;;;;;;;0.60;0.35;;;17.70;99.90;;;;;;4186886;28;20171;-92
2023/08/14 00:36:07;;;;;;;0.45;0.40;;;17.80;99.90;;;;;;4187535;28;20233;-90
2023/08/14 00:38:08;;;;;;;0.40;0.30;;;17.80;99.90;;;;;;4203016;28;20171;-92
2023/08/14 00:40:10;;;;;;;0.50;0.30;;;17.90;99.90;;;;;;4186106;28;20282;-91
2023/08/14 00:42:11;;;;;;;0.75;0.40;;;17.90;99.90;;;;;;4201097;28;20273;-92
2023/08/14 00:44:12;;;;;;;0.38;0.25;;;17.90;99.90;;;;;;4186077;28;20646;-92
2023/08/14 00:46:13;;;;;;;0.95;0.40;;;18.00;99.90;;;;;;4185716;28;20290;-92
2023/08/14 00:48:14;;;;;;;0.45;0.20;;;18.00;99.90;;;;;;4185261;28;20175;-94
2023/08/14 00:50:18;;;;;;;0.47;0.20;;;17.90;99.90;;;;;;4185136;28;20187;-95
2023/08/14 00:52:19;;;;;;;3.30;0.47;;;17.90;99.90;;;;;;4201386;28;20210;-92
2023/08/14 00:54:20;;;;;;;0.73;0.63;;;18.00;99.90;;;;;;4186879;28;20222;-95
2023/08/14 00:56:23;;;;;;;2.97;0.88;;;18.00;99.90;;;;;;4203931;28;20242;-95
2023/08/14 00:58:27;;;;;;;0.60;0.60;;;18.00;99.90;;;;;;4202324;28;20277;-93
2023/08/14 01:00:29;;;;;;;0.70;0.50;;;18.00;99.90;;;;;;4201354;28;20229;-92
2023/08/14 01:02:30;;;;;;;0.50;0.40;;;18.00;99.90;;;;;;4184112;28;20540;-91
2023/08/14 01:04:31;;;;;;;0.90;0.32;;;18.00;99.90;;;;;;4184181;28;20229;-95
2023/08/14 01:06:32;;;;;;;1.15;0.52;;;17.90;99.90;;;;;;4203821;28;20170;-95
2023/08/14 01:08:34;;;;;;;0.50;0.30;;;17.90;99.90;;;;;;4185147;28;20171;-92
2023/08/14 01:10:58;;;;;;;0.57;0.47;;;17.90;99.90;;;;;;4184462;28;20593;-93
2023/08/14 01:13:28;;;;;;;2.35;0.50;;;17.90;99.90;;;;;;4183690;28;20183;-91
2023/08/14 01:15:52;;;;;;;3.92;0.68;;;17.90;99.90;;;;;;4173537;28;20283;-92
2023/08/14 01:17:59;;;;;;;0.32;0.30;;;17.80;99.90;;;;;;4183344;28;20168;-93
2023/08/14 01:20:02;;;;;;;0.82;0.43;;;17.70;99.90;;;;;;4183405;28;20297;-92
2023/08/14 01:22:22;;;;;;;0.30;0.30;;;17.70;99.90;;;;;;4201350;28;20171;-95
2023/08/14 01:24:41;;;;;;;1.02;0.45;;;17.70;99.90;;;;;;4201092;28;20179;-95
2023/08/14 01:26:42;;;;;;;2.67;0.50;;;17.60;99.90;;;;;;4183933;28;20266;-91
2023/08/14 01:28:45;;;;;;;1.23;0.40;;;17.60;99.90;;;;;;4183360;28;20302;-91
2023/08/14 01:30:45;;;;;;;1.13;0.73;;;17.60;99.90;;;;;;4183401;28;20278;-92
2023/08/14 01:32:46;;;;;;;0.35;0.22;;;17.60;99.90;;;;;;4201812;28;20220;-95
2023/08/14 01:34:47;;;;;;;1.77;0.82;;;17.60;99.90;;;;;;4184579;28;20195;-92
2023/08/14 01:37:03;;;;;;;0.60;0.30;;;17.60;99.90;;;;;;4201208;28;20178;-92
2023/08/14 01:39:10;;;;;;;1.98;0.57;;;17.70;99.90;;;;;;4185529;28;20227;-92
2023/08/14 01:41:18;;;;;;;1.65;0.50;;;17.70;99.90;;;;;;4182940;28;20253;-92
2023/08/14 01:43:29;;;;;;;0.50;0.40;;;17.70;99.90;;;;;;4183322;28;20179;-96
2023/08/14 01:45:32;;;;;;;0.50;0.30;;;17.70;99.90;;;;;;4184433;28;20642;-92
2023/08/14 01:47:34;;;;;;;0.60;0.50;;;17.70;99.90;;;;;;4183054;28;20627;-92
2023/08/14 01:49:37;;;;;;;1.40;0.32;;;17.70;99.90;;;;;;4182765;28;20207;-91
2023/08/14 01:51:39;;;;;;;0.85;0.40;;;17.70;99.90;;;;;;4200031;28;20201;-91
2023/08/14 01:53:40;;;;;;;0.47;0.40;;;17.70;99.90;;;;;;4185491;28;20226;-92
2023/08/14 01:55:41;;;;;;;1.75;0.43;;;17.70;99.90;;;;;;4184076;28;20576;-91
2023/08/14 01:57:42;;;;;;;0.60;0.50;;;17.70;99.90;;;;;;4183764;28;20230;-92
2023/08/14 01:59:45;;;;;;;6.82;0.73;;;17.40;99.90;;;;;;4182392;28;20184;-92
2023/08/14 02:01:46;;;;;;;1.02;0.80;;;17.40;99.90;;;;;;4182601;28;20252;-95
2023/08/14 02:03:47;;;;;;;3.30;0.80;;;17.40;99.90;;;;;;4182788;28;20168;-93
2023/08/14 02:05:48;;;;;;;1.25;0.57;;;17.90;99.90;;;;;;4182623;28;20183;-91
2023/08/14 02:07:49;;;;;;;3.17;0.60;;;17.90;99.90;;;;;;4182623;28;20164;-91
2023/08/14 02:09:49;;;;;;;2.28;1.08;;;18.10;99.90;;;;;;4200355;28;20233;-91
2023/08/14 02:11:51;;;;;;;1.85;0.57;;;18.20;99.90;;;;;;4183845;28;20235;-94
2023/08/14 02:13:51;;;;;;;0.73;0.50;;;18.20;99.90;;;;;;4183625;28;20175;-96
2023/08/14 02:15:53;;;;;;;1.10;0.70;;;17.90;99.90;;;;;;4199550;28;20171;-92
2023/08/14 02:17:53;;;;;;;1.42;0.93;;;17.70;99.90;;;;;;4183263;28;20176;-94
2023/08/14 02:19:54;;;;;;;1.52;0.73;;;17.50;99.90;;;;;;4199710;28;20190;-92
2023/08/14 02:21:55;;;;;;;0.73;0.50;;;17.40;99.90;;;;;;4183117;28;20178;-95
2023/08/14 02:23:56;;;;;;;8.15;0.57;;;17.30;99.90;;;;;;4183550;28;20179;-92
2023/08/14 02:25:57;;;;;;;1.52;0.70;;;17.20;99.90;;;;;;4185620;28;20171;-92
2023/08/14 02:27:57;;;;;;;0.60;0.40;;;17.10;99.90;;;;;;4200928;28;20174;-92
2023/08/14 02:29:58;;;;;;;1.00;0.80;;;17.10;99.90;;;;;;4183783;28;20198;-93
2023/08/14 02:31:59;;;;;;;2.15;0.60;;;17.20;99.90;;;;;;4183430;28;20306;-92
2023/08/14 02:34:01;;;;;;;0.90;0.70;;;17.10;99.90;;;;;;4199800;28;20257;-91
2023/08/14 02:36:02;;;;;;;0.75;0.55;;;17.00;99.90;;;;;;4182271;28;20254;-92
2023/08/14 02:38:07;;;;;;;1.85;0.70;;;17.00;99.90;;;;;;4181664;28;20179;-95
2023/08/14 02:40:08;;;;;;;2.80;0.60;;;17.00;99.90;;;;;;4181765;28;20719;-95
2023/08/14 02:42:11;;;;;;;0.50;0.40;;;17.00;99.90;;;;;;4181510;28;20190;-92
2023/08/14 02:44:12;;;;;;;0.70;0.47;;;17.00;99.90;;;;;;4182002;28;20536;-95
2023/08/14 02:46:13;;;;;;;0.65;0.50;;;17.00;99.90;;;;;;4181441;28;20266;-92
2023/08/14 02:48:14;;;;;;;2.50;0.45;;;17.00;99.90;;;;;;4181460;28;20171;-92
2023/08/14 02:50:15;;;;;;;1.13;0.50;;;17.10;99.90;;;;;;4182608;28;20266;-93
2023/08/14 02:52:15;;;;;;;0.93;0.60;;;17.10;99.90;;;;;;4182492;28;20214;-92
2023/08/14 02:54:17;;;;;;;0.88;0.60;;;17.20;99.90;;;;;;4183069;28;20201;-92
2023/08/14 02:56:17;;;;;;;0.52;0.43;;;17.20;99.90;;;;;;4185371;28;20309;-93
2023/08/14 02:58:19;;;;;;;0.80;0.70;;;17.10;99.90;;;;;;4184089;28;20183;-92
2023/08/14 03:00:20;;;;;;;2.05;0.88;;;17.10;99.90;;;;;;4184601;28;20226;-92
2023/08/14 03:02:21;;;;;;;0.63;0.40;;;17.00;99.90;;;;;;4183378;28;20179;-93
2023/08/14 03:04:21;;;;;;;1.38;0.60;;;17.00;99.90;;;;;;4183316;28;20245;-92
2023/08/14 03:06:22;;;;;;;0.50;0.40;;;17.00;99.90;;;;;;4183150;28;20443;-92
2023/08/14 03:08:25;;;;;;;0.90;0.57;;;17.00;99.90;;;;;;4184809;28;20179;-92
2023/08/14 03:10:26;;;;;;;0.88;0.50;;;17.00;99.90;;;;;;4200826;28;20235;-93
2023/08/14 03:12:27;;;;;;;0.73;0.38;;;17.00;99.90;;;;;;4183717;28;20215;-96
2023/08/14 03:14:28;;;;;;;3.92;1.05;;;17.10;99.90;;;;;;4181881;28;20195;-94
2023/08/14 03:16:28;;;;;;;0.88;0.47;;;17.10;99.90;;;;;;4182411;28;20667;-92
2023/08/14 03:18:29;;;;;;;0.32;0.30;;;17.20;99.90;;;;;;4183925;28;20750;-91
2023/08/14 03:20:30;;;;;;;0.43;0.32;;;17.30;99.90;;;;;;4182567;28;20195;-92
2023/08/14 03:22:31;;;;;;;3.60;0.57;;;17.30;99.90;;;;;;4181706;28;20177;-92
2023/08/14 03:24:32;;;;;;;0.55;0.43;;;17.20;99.90;;;;;;4181775;28;20529;-95
2023/08/14 03:26:32;;;;;;;1.10;0.43;;;17.10;99.90;;;;;;4181318;28;20175;-92
2023/08/14 03:28:33;;;;;;;1.05;0.80;;;17.00;99.90;;;;;;4181826;28;20603;-92
2023/08/14 03:30:43;;;;;;;1.17;0.80;;;17.10;99.90;;;;;;4199194;28;20199;-92
2023/08/14 03:32:46;;;;;;;0.85;0.47;;;17.10;99.90;;;;;;4182410;28;20289;-92
2023/08/14 03:34:47;;;;;;;0.40;0.20;;;17.10;99.90;;;;;;4182169;28;20596;-92
2023/08/14 03:36:48;;;;;;;0.82;0.47;;;17.10;99.90;;;;;;4182207;28;20174;-92
2023/08/14 03:38:49;;;;;;;0.40;0.38;;;17.10;99.90;;;;;;4181931;28;20164;-92
2023/08/14 03:40:51;;;;;;;1.08;0.43;;;17.10;99.90;;;;;;4183038;28;20283;-92
2023/08/14 03:42:52;;;;;;;0.88;0.60;;;17.10;99.90;;;;;;4182064;28;20222;-92
2023/08/14 03:44:54;;;;;;;0.60;0.50;;;17.10;99.90;;;;;;4182042;28;20171;-91
2023/08/14 03:46:55;;;;;;;0.20;0.20;;;17.10;99.90;;;;;;4181770;28;20651;-95
2023/08/14 03:48:56;;;;;;;0.60;0.35;;;17.10;99.90;;;;;;4198867;28;20292;-94
2023/08/14 03:50:57;;;;;;;1.50;0.70;;;17.10;99.90;;;;;;4198948;28;20241;-95
2023/08/14 03:52:57;;;;;;;1.90;0.65;;;17.10;99.90;;;;;;4183619;28;20622;-91
2023/08/14 03:54:58;;;;;;;1.00;0.50;;;17.10;99.90;;;;;;4183765;28;20770;-92
2023/08/14 03:56:59;;;;;;;2.05;0.73;;;17.10;99.90;;;;;;4181808;28;20171;-92
2023/08/14 03:59:00;;;;;;;1.15;0.40;;;17.20;99.90;;;;;;4181535;28;20699;-92
2023/08/14 04:01:01;;;;;;;1.90;0.60;;;17.30;99.90;;;;;;4197793;28;20191;-92
2023/08/14 04:03:03;;;;;;;0.43;0.38;;;17.30;99.90;;;;;;4181042;28;20190;-92
2023/08/14 04:05:04;;;;;;;0.95;0.70;;;17.50;99.90;;;;;;4180849;28;20214;-95
2023/08/14 04:07:05;;;;;;;0.35;0.35;;;17.90;99.90;;;;;;4197520;28;20178;-91
2023/08/14 04:09:07;;;;;;;1.05;0.60;;;18.20;99.90;;;;;;4180807;28;20168;-92
2023/08/14 04:11:09;;;;;;;4.88;0.47;;;18.10;99.90;;;;;;4198748;28;20690;-92
2023/08/14 04:13:10;;;;;;;1.00;0.60;;;17.70;99.90;;;;;;4184051;28;20176;-91
2023/08/14 04:15:15;;;;;;;1.15;0.40;;;17.40;99.90;;;;;;4200416;28;20175;-92
2023/08/14 04:17:16;;;;;;;1.08;0.40;;;17.40;99.90;;;;;;4183661;28;20266;-92
2023/08/14 04:19:18;;;;;;;0.75;0.47;;;17.20;99.90;;;;;;4183659;28;20222;-93
2023/08/14 04:21:19;;;;;;;0.50;0.40;;;17.10;99.90;;;;;;4183936;28;20164;-91
2023/08/14 04:23:22;;;;;;;0.30;0.30;;;17.20;99.90;;;;;;4200627;28;20610;-92
2023/08/14 04:25:23;;;;;;;0.50;0.38;;;17.00;99.90;;;;;;4183870;28;20587;-92
2023/08/14 04:27:23;;;;;;;0.73;0.55;;;16.90;99.90;;;;;;4184292;28;20318;-93
2023/08/14 04:29:24;;;;;;;0.50;0.43;;;16.80;99.90;;;;;;4184918;28;20680;-93
2023/08/14 04:31:25;;;;;;;0.73;0.60;;;16.90;99.90;;;;;;4184293;28;20241;-93
2023/08/14 04:33:26;;;;;;;1.02;0.50;;;17.00;99.90;;;;;;4184767;28;20180;-94
2023/08/14 04:35:27;;;;;;;1.98;0.40;;;17.00;99.90;;;;;;4185112;28;20236;-92
2023/08/14 04:37:28;;;;;;;1.05;0.52;;;16.90;99.90;;;;;;4184508;28;20198;-94
2023/08/14 04:39:29;;;;;;;0.93;0.30;;;17.00;99.90;;;;;;4189924;28;20202;-92
2023/08/14 04:41:30;;;;;;;0.70;0.45;;;17.00;99.90;;;;;;4188078;28;20535;-92
2023/08/14 04:43:31;;;;;;;2.13;0.60;;;17.10;99.90;;;;;;4201581;28;20749;-92
2023/08/14 04:45:33;;;;;;;0.82;0.40;;;17.20;99.90;;;;;;4203498;28;20177;-93
2023/08/14 04:47:34;;;;;;;0.73;0.43;;;17.30;99.90;;;;;;4185303;28;20179;-95
2023/08/14 04:49:35;;;;;;;1.50;0.60;;;17.40;99.90;;;;;;4185374;28;20167;-94
2023/08/14 04:51:36;;;;;;;0.90;0.57;;;17.40;99.90;;;;;;4185335;28;20199;-95
2023/08/14 04:53:37;;;;;;;1.08;0.50;;;17.40;99.90;;;;;;4184915;28;20258;-92
2023/08/14 04:55:38;;;;;;;2.08;0.57;;;17.50;99.90;;;;;;4184002;28;20195;-92
2023/08/14 04:57:39;;;;;;;0.45;0.40;;;17.50;99.90;;;;;;4200913;28;20206;-91
2023/08/14 04:59:42;;;;;;;0.65;0.47;;;17.60;99.90;;;;;;4184364;28;20260;-93
2023/08/14 05:01:42;;;;;;;1.73;0.80;;;17.70;99.90;;;;;;4185625;28;20167;-91
2023/08/14 05:03:43;;;;;;;0.60;0.35;;;17.70;99.90;;;;;;4183965;28;20182;-92
2023/08/14 05:05:50;;;;;;;1.08;0.57;;;17.70;99.90;;;;;;4184248;28;20175;-92
2023/08/14 05:07:51;;;;;;;0.55;0.47;;;17.80;99.90;;;;;;4199455;28;20233;-92
2023/08/14 05:09:52;;;;;;;0.73;0.52;;;17.80;99.90;;;;;;4182735;28;20191;-92
2023/08/14 05:11:53;;;;;;;0.80;0.40;;;17.80;99.90;;;;;;4182948;28;20764;-92
2023/08/14 05:13:54;;;;;;;1.60;0.50;;;17.90;99.90;;;;;;4182939;28;20246;-92
2023/08/14 05:15:56;;;;;;;1.58;0.65;;;17.80;99.90;;;;;;4199191;28;20175;-94
2023/08/14 05:17:57;;;;;;;1.95;0.50;;;17.80;99.90;;;;;;4182517;28;20172;-91
2023/08/14 05:19:57;;;;;;;0.70;0.52;;;17.90;99.90;;;;;;4182398;28;20191;-93
2023/08/14 05:21:58;;;;;;;0.50;0.50;;;18.00;99.90;;;;;;4182315;28;20195;-93
2023/08/14 05:23:59;;;;;;;0.63;0.50;;;18.10;99.90;;;;;;4182619;28;20574;-93
2023/08/14 05:26:00;;;;;;;0.70;0.57;;;18.20;99.90;;;;;;4199096;28;20171;-94
2023/08/14 05:28:01;;;;;;;1.30;0.50;;;18.30;99.90;;;;;;4182630;28;20180;-94
2023/08/14 05:30:01;;;;;;;0.38;0.20;;;18.40;99.90;;;;;;4182217;28;20191;-92
2023/08/14 05:32:04;;;;;;;1.02;0.57;;;18.40;99.90;;;;;;4182409;28;20216;-91
2023/08/14 05:34:05;;;;;;;0.65;0.43;;;18.50;99.90;;;;;;4182577;28;20624;-93
2023/08/14 05:36:15;;;;;;;1.85;0.55;;;18.40;99.90;;;;;;4199155;28;20178;-92
2023/08/14 05:38:16;;;;;;;0.77;0.45;;;18.20;99.90;;;;;;4182452;28;20442;-92
2023/08/14 05:40:18;;;;;;;0.82;0.55;;;18.20;99.90;;;;;;4182545;28;20195;-93
2023/08/14 05:42:19;;;;;;;1.95;0.77;;;18.20;99.90;;;;;;4182516;28;20183;-92
2023/08/14 05:44:20;;;;;;;0.90;0.50;;;18.20;99.90;;;;;;4182726;28;20258;-93
2023/08/14 05:46:23;;;;;;;0.30;0.30;;;18.20;99.90;;;;;;4182643;28;20174;-93
2023/08/14 05:48:24;;;;;;;0.63;0.60;;;18.20;99.90;;;;;;4182496;28;20195;-91
2023/08/14 05:50:27;;;;;;;1.60;0.60;;;18.40;99.90;;;;;;4182022;28;20183;-92
2023/08/14 05:52:27;;;;;;;1.05;0.50;;;18.60;99.90;;;;;;4181962;28;20208;-93
2023/08/14 05:54:28;;;;;;;0.95;0.63;;;18.70;99.90;;;;;;4182397;28;20168;-92
2023/08/14 05:56:29;;;;;;;1.27;0.50;;;19.00;99.90;;;;;;4182268;28;20179;-93
2023/08/14 05:58:29;;;;;;;1.48;0.65;;;19.10;99.90;;;;;;4182360;28;20309;-91
2023/08/14 06:00:30;;;;;;;2.72;0.90;;;19.20;99.90;;;;;;4182100;28;20204;-92
2023/08/14 06:02:31;;;;;;;1.40;0.65;;;19.30;99.90;;;;;;4181948;28;20640;-94
2023/08/14 06:04:33;;;;;;;2.03;1.10;;;19.30;99.90;;;;;;4181781;28;20175;-96
2023/08/14 06:06:34;;;;;;;2.22;0.80;;;19.30;99.90;;;;;;4181885;28;20164;-92
2023/08/14 06:08:34;;;;;;;0.90;0.60;;;19.40;99.90;;;;;;4182044;28;20215;-94
2023/08/14 06:10:35;;;;;;;0.98;0.50;;;19.40;99.90;;;;;;4181976;28;20188;-91
2023/08/14 06:12:36;;;;;;;0.20;0.13;;;19.50;99.90;;;;;;4181783;28;20211;-93
2023/08/14 06:14:37;;;;;;;4.47;0.80;;;19.50;99.90;;;;;;4198327;28;20170;-93
2023/08/14 06:16:37;;;;;;;1.67;0.80;;;19.40;99.90;;;;;;4181424;28;20203;-94
2023/08/14 06:18:38;;;;;;;1.50;0.80;;;19.50;99.90;;;;;;4181790;28;21043;-92
2023/08/14 06:20:39;;;;;;;0.80;0.20;;;19.40;99.90;;;;;;4181713;28;20222;-94
2023/08/14 06:22:42;;;;;;;0.75;0.52;;;19.40;99.90;;;;;;4181725;28;20667;-93
2023/08/14 06:24:43;;;;;;;0.70;0.43;;;19.30;99.90;;;;;;4181819;28;20175;-95
2023/08/14 06:26:43;;;;;;;0.82;0.45;;;19.20;99.90;;;;;;4181827;28;20325;-93
2023/08/14 06:28:44;;;;;;;0.75;0.40;;;19.20;99.90;;;;;;4198021;28;20183;-94
2023/08/14 06:30:45;;;;;;;0.32;0.30;;;19.30;99.90;;;;;;4181562;28;20676;-92
2023/08/14 06:32:46;;;;;;;1.88;0.43;;;19.20;99.90;;;;;;4181415;28;20683;-93
2023/08/14 06:34:47;;;;;;;2.70;0.63;;;19.10;99.90;;;;;;4181080;28;20163;-93
2023/08/14 06:36:47;;;;;;;0.50;0.50;;;19.00;99.90;;;;;;4181660;28;20202;-92
2023/08/14 06:38:48;;;;;;;1.23;0.40;;;19.10;99.90;;;;;;4182158;28;20258;-95
2023/08/14 06:40:49;;;;;;;0.65;0.50;;;19.20;99.90;;;;;;4181514;28;20191;-94
2023/08/14 06:42:52;;;;;;;0.63;0.30;;;19.30;99.90;;;;;;4198407;28;20186;-95
2023/08/14 06:44:52;;;;;;;3.67;0.68;;;19.50;99.90;;;;;;4198438;28;20175;-93
2023/08/14 06:46:53;;;;;;;2.35;0.50;;;19.80;99.90;;;;;;4181284;28;20176;-93
2023/08/14 06:48:54;;;;;;;1.02;0.47;;;19.90;99.90;;;;;;4198068;28;20213;-93
2023/08/14 06:50:57;;;;;;;1.02;0.50;;;20.10;99.90;;;;;;4181606;28;20183;-93
2023/08/14 06:52:59;;;;;;;1.70;0.70;;;20.50;99.90;;;;;;4198080;28;20282;-95
2023/08/14 06:55:00;;;;;;;1.85;0.43;;;20.80;99.90;;;;;;4181211;28;20172;-93
2023/08/14 06:57:01;;;;;;;3.08;0.32;;;21.10;99.90;;;;;;4181570;28;20334;-94
2023/08/14 06:59:02;;;;;;;0.30;0.30;;;21.10;99.90;;;;;;4181294;28;20238;-94
2023/08/14 07:01:03;;;;;;;1.10;0.38;;;20.90;99.90;;;;;;4181255;28;20258;-95
2023/08/14 07:03:04;;;;;;;0.30;0.25;;;21.20;99.90;;;;;;4181410;28;20172;-95
2023/08/14 07:05:06;;;;;;;3.60;0.70;;;20.90;99.90;;;;;;4198510;28;20265;-95
2023/08/14 07:07:07;;;;;;;2.25;0.68;;;20.70;99.90;;;;;;4181221;28;20163;-94
2023/08/14 07:09:08;;;;;;;0.80;0.50;;;20.50;99.90;;;;;;4198218;28;20520;-93
2023/08/14 07:11:08;;;;;;;1.25;0.40;;;20.40;99.90;;;;;;4197926;28;20186;-94
2023/08/14 07:13:10;;;;;;;5.68;0.50;;;20.70;99.90;;;;;;4181290;28;20246;-95
2023/08/14 07:15:11;;;;;;;1.40;0.28;;;21.00;99.90;;;;;;4181444;28;20306;-94
2023/08/14 07:17:12;;;;;;;0.88;0.30;;;21.40;99.90;;;;;;4181457;28;20261;-95
2023/08/14 07:19:13;;;;;;;0.63;0.45;;;22.50;99.90;;;;;;4183971;28;20560;-92
2023/08/14 07:21:14;;;;;;;0.88;0.32;;;23.70;99.90;;;;;;4199214;28;20244;-93
2023/08/14 07:23:19;;;;;;;3.28;0.52;;;25.60;99.90;;;;;;4197690;28;20595;-93
2023/08/14 07:25:20;;;;;;;1.15;0.40;;;27.40;99.90;;;;;;4181206;28;20262;-93
2023/08/14 07:27:20;;;;;;;0.75;0.40;;;28.80;99.90;;;;;;4181572;28;20174;-95
2023/08/14 07:29:21;;;;;;;12.25;1.02;;;30.00;99.90;;;;;;4181879;28;20171;-94
2023/08/14 07:31:22;;;;;;;11.18;1.17;;;31.00;99.90;;;;;;4199260;28;20175;-93
2023/08/14 07:33:23;;;;;;;1.40;0.40;;;31.50;99.90;;;;;;4198202;28;20187;-94
2023/08/14 07:35:24;;;;;;;0.60;0.60;;;31.20;99.90;;;;;;4181271;28;20184;-93
2023/08/14 07:37:25;;;;;;;0.30;0.30;;;31.70;99.90;;;;;;4181553;28;20172;-93
2023/08/14 07:39:26;;;;;;;0.73;0.30;;;32.50;99.90;;;;;;4198074;28;20242;-94
2023/08/14 07:41:27;;;;;;;2.40;0.70;;;33.00;99.90;;;;;;4181956;28;20250;-93
2023/08/14 07:43:27;;;;;;;3.03;0.88;;;32.50;99.90;;;;;;4181574;28;20195;-94
2023/08/14 07:45:28;;;;;;;0.35;0.20;;;32.70;99.90;;;;;;4183461;28;20639;-94
2023/08/14 07:47:29;;;;;;;2.80;0.57;;;32.50;99.90;;;;;;4185278;28;20167;-96
2023/08/14 07:49:34;;;;;;;0.80;0.30;;;32.10;99.90;;;;;;4186431;28;20178;-95
2023/08/14 07:51:34;;;;;;;0.40;0.32;;;31.90;99.90;;;;;;4203365;28;20588;-95
2023/08/14 07:53:35;;;;;;;2.83;0.43;;;32.30;99.90;;;;;;4186402;28;20175;-94
2023/08/14 07:55:37;;;;;;;3.17;0.32;;;31.60;99.90;;;;;;4184976;28;20175;-96
2023/08/14 07:57:38;;;;;;;1.13;0.60;;;31.80;99.90;;;;;;4184419;28;20178;-94
2023/08/14 07:59:39;;;;;;;0.70;0.43;;;31.60;99.90;;;;;;4184697;28;20194;-95
2023/08/14 08:01:41;;;;;;;1.90;0.50;;;31.20;99.90;;;;;;4200952;28;20251;-94
2023/08/14 08:03:42;;;;;;;0.30;0.22;;;32.10;99.90;;;;;;4184954;28;20233;-95
2023/08/14 08:05:43;;;;;;;0.77;0.40;;;32.40;99.90;;;;;;4190691;28;20167;-93
2023/08/14 08:07:43;;;;;;;0.57;0.30;;;33.00;99.90;;;;;;4198377;28;20175;-93
2023/08/14 08:09:44;;;;;;;0.57;0.32;;;33.20;99.90;;;;;;4188149;28;20199;-96
2023/08/14 08:11:45;;;;;;;1.67;0.40;;;33.00;99.90;;;;;;4184667;28;20262;-95
2023/08/14 08:13:46;;;;;;;0.82;0.30;;;33.20;99.90;;;;;;4184331;28;20201;-94
2023/08/14 08:15:47;;;;;;;2.55;0.60;;;32.90;99.90;;;;;;4184499;28;20228;-96
2023/08/14 08:17:48;;;;;;;1.20;0.40;;;33.40;99.90;;;;;;4183987;28;20648;-93
2023/08/14 08:19:48;;;;;;;0.70;0.30;;;32.20;99.90;;;;;;4200353;28;20316;-94
2023/08/14 08:21:49;;;;;;;0.88;0.38;;;32.40;99.90;;;;;;4184083;28;20273;-96
2023/08/14 08:23:50;;;;;;;0.30;0.25;;;32.70;99.90;;;;;;4184397;28;20186;-93
2023/08/14 08:25:51;;;;;;;1.23;0.40;;;32.70;99.90;;;;;;4184163;28;20179;-94
2023/08/14 08:27:52;;;;;;;0.95;0.20;;;31.40;99.90;;;;;;4200608;28;20543;-95
2023/08/14 08:29:53;;;;;;;1.30;0.52;;;31.60;99.90;;;;;;4183782;28;20190;-94
2023/08/14 08:31:53;;;;;;;1.10;0.30;;;32.00;99.90;;;;;;4183038;28;20579;-93
2023/08/14 08:33:54;;;;;;;0.75;0.35;;;33.20;99.90;;;;;;4183232;28;20182;-91
2023/08/14 08:35:55;;;;;;;0.70;0.43;;;33.10;99.90;;;;;;4199609;28;20202;-93
2023/08/14 08:37:56;;;;;;;0.73;0.30;;;33.50;99.90;;;;;;4182470;28;20167;-94
2023/08/14 08:39:56;;;;;;;0.47;0.40;;;33.90;99.90;;;;;;4182711;28;20200;-93
2023/08/14 08:41:58;;;;;;;1.33;0.47;;;34.40;99.90;;;;;;4182785;28;20195;-93
2023/08/14 08:44:07;;;;;;;1.05;0.30;;;34.50;99.90;;;;;;4183080;28;20644;-94
2023/08/14 08:46:12;;;;;;;2.92;0.75;;;33.70;99.90;;;;;;4182803;28;20291;-95
2023/08/14 08:48:16;;;;;;;0.73;0.25;;;32.10;99.90;;;;;;4182771;28;20611;-94
2023/08/14 08:50:17;;;;;;;0.20;0.20;;;31.70;99.90;;;;;;4182872;28;20274;-93
2023/08/14 08:52:19;;;;;;;0.40;0.30;;;31.40;99.90;;;;;;4183036;28;20705;-94
2023/08/14 08:54:20;;;;;;;1.13;0.50;;;31.00;99.90;;;;;;4199411;28;20174;-94
2023/08/14 08:56:22;;;;;;;0.30;0.28;;;32.20;99.90;;;;;;4182131;28;20167;-93
2023/08/14 08:58:25;;;;;;;0.47;0.30;;;33.20;99.90;;;;;;4199218;28;20178;-95
2023/08/14 09:00:26;;;;;;;0.40;0.40;;;33.20;99.90;;;;;;4199337;28;20202;-94
2023/08/14 09:02:28;;;;;;;0.47;0.20;;;32.50;99.90;;;;;;4183709;28;20250;-94
2023/08/14 09:04:29;;;;;;;0.30;0.30;;;31.80;99.90;;;;;;4182810;28;20171;-93
2023/08/14 09:06:30;;;;;;;1.08;0.47;;;31.90;99.90;;;;;;4199715;28;20285;-94
2023/08/14 09:08:31;;;;;;;2.47;0.82;;;32.90;99.90;;;;;;4199308;28;20175;-94
2023/08/14 09:10:32;;;;;;;1.50;0.30;;;33.70;99.90;;;;;;4199345;28;20665;-94
2023/08/14 09:12:33;;;;;;;0.30;0.30;;;33.40;99.90;;;;;;4199419;28;20170;-93
2023/08/14 09:14:33;;;;;;;1.00;0.50;;;32.50;99.90;;;;;;4182962;28;20179;-93
2023/08/14 09:16:34;;;;;;;0.32;0.25;;;32.30;99.90;;;;;;4182931;28;20167;-93
2023/08/14 09:18:35;;;;;;;0.65;0.32;;;31.80;99.90;;;;;;4182557;28;20217;-93
2023/08/14 09:20:37;;;;;;;0.93;0.40;;;32.50;99.90;;;;;;4199058;28;20221;-93
2023/08/14 09:22:38;;;;;;;0.30;0.30;;;33.10;99.90;;;;;;4182510;28;20218;-94
2023/08/14 09:24:39;;;;;;;0.20;0.20;;;33.20;99.90;;;;;;4182503;28;20166;-93
2023/08/14 09:26:42;;;;;;;0.98;0.50;;;34.10;99.90;;;;;;4182440;28;20284;-94
2023/08/14 09:28:43;;;;;;;0.40;0.30;;;34.00;99.90;;;;;;4182351;28;20178;-93
2023/08/14 09:30:44;;;;;;;1.83;0.68;;;34.40;99.90;;;;;;4182204;28;20187;-94
2023/08/14 09:32:46;;;;;;;3.33;0.50;;;33.40;99.90;;;;;;4182471;28;20178;-94
2023/08/14 09:34:46;;;;;;;0.73;0.40;;;33.30;99.90;;;;;;4182493;28;20590;-94
2023/08/14 09:36:48;;;;;;;1.75;0.70;;;33.30;99.90;;;;;;4182377;28;20169;-94
2023/08/14 09:38:51;;;;;;;0.77;0.30;;;32.60;99.90;;;;;;4198725;28;20194;-94
2023/08/14 09:40:59;;;;;;;0.73;0.40;;;32.50;99.90;;;;;;4182298;28;20187;-93
2023/08/14 09:43:01;;;;;;;0.70;0.40;;;31.80;99.90;;;;;;4182289;28;20206;-96
2023/08/14 09:45:02;;;;;;;0.80;0.35;;;31.90;99.90;;;;;;4182050;28;20167;-95
2023/08/14 09:47:04;;;;;;;0.70;0.45;;;31.60;99.90;;;;;;4181947;28;20537;-93
2023/08/14 09:49:05;;;;;;;0.93;0.52;;;31.90;99.90;;;;;;4181987;28;20163;-94
2023/08/14 09:51:12;;;;;;;0.45;0.30;;;31.70;99.90;;;;;;4181852;28;20286;-94
2023/08/14 09:53:13;;;;;;;0.93;0.50;;;31.60;99.90;;;;;;4165853;28;20263;-94
2023/08/14 09:55:14;;;;;;;0.40;0.30;;;31.00;99.90;;;;;;4165985;28;20168;-93
2023/08/14 09:57:17;;;;;;;2.55;1.10;;;31.40;99.90;;;;;;4165893;28;20178;-93
2023/08/14 09:59:17;;;;;;;1.05;0.55;;;31.60;99.90;;;;;;4181939;28;20225;-93
2023/08/14 10:01:20;;;;;;;0.73;0.52;;;31.60;99.90;;;;;;4183245;28;20175;-93
2023/08/14 10:03:22;;;;;;;1.88;0.93;;;31.60;99.90;;;;;;4166006;28;20215;-92
2023/08/14 10:05:24;;;;;;;0.60;0.47;;;31.30;99.90;;;;;;4182146;28;20167;-93
2023/08/14 10:07:26;;;;;;;2.10;0.75;;;31.80;99.90;;;;;;4184156;28;20233;-94
2023/08/14 10:09:31;;;;;;;0.35;0.35;;;31.30;99.90;;;;;;4183675;28;20710;-96
2023/08/14 10:11:35;;;;;;;2.47;0.70;;;30.70;99.90;;;;;;4183537;28;20209;-93
2023/08/14 10:13:42;;;;;;;0.65;0.40;;;30.50;99.90;;;;;;4185384;28;20175;-92
2023/08/14 10:15:57;;;;;;;0.85;0.43;;;30.60;99.90;;;;;;4172546;28;20207;-93
2023/08/14 10:18:06;;;;;;;1.33;0.17;;;31.30;99.90;;;;;;4184776;28;20269;-94
2023/08/14 10:20:10;;;;;;;0.77;0.50;;;30.70;99.90;;;;;;4182825;28;20198;-93
2023/08/14 10:22:12;;;;;;;0.63;0.30;;;30.70;99.90;;;;;;4183352;28;20206;-95
2023/08/14 10:24:13;;;;;;;0.50;0.40;;;30.80;99.90;;;;;;4182799;28;20722;-92
2023/08/14 10:26:14;;;;;;;0.75;0.55;;;30.60;99.90;;;;;;4165427;28;20171;-94
2023/08/14 10:28:16;;;;;;;0.40;0.38;;;30.50;99.90;;;;;;4165239;28;20652;-94
2023/08/14 10:30:22;;;;;;;1.73;0.57;;;29.80;99.90;;;;;;4181675;28;20655;-94
2023/08/14 10:32:24;;;;;;;1.42;0.60;;;29.40;99.90;;;;;;4181674;28;20636;-93
2023/08/14 10:34:26;;;;;;;0.75;0.40;;;29.20;99.90;;;;;;4181744;28;20560;-93
2023/08/14 10:36:28;;;;;;;0.25;0.25;;;28.80;99.90;;;;;;4165122;28;20637;-94